• Join FlightAware (Why Join?)
  • Login
  • US Flag 
09:47AM EDT


 

Airport Tracker/Info


-or-


 

Live Flight TrackerFlight Track Log ✈ PDT4207 ✈ 25-Oct-2013 ✈ KPHL - KBGM

Flight Track Log - Related Links

Times and Time Zones

All times are in EDT time to prevent confusion due to time zone crossing. See the PDT4207 flight status page for this flight to view local times or setup timezone preferences in your user account.

Time Position Orientation Groundspeed Altitude Reporting Facility
EDT Latitude Longitude Course Direction KTS MPH feet Rate Location/Type
09:35PM 39.9000 -75.2333 311° West 122 140 700  Level Philadelphia TRACON
09:35PM 39.9000 -75.2500 270° West 105 121 1,700 1,380 Climbing Philadelphia TRACON
09:36PM 39.9167 -75.3000 294° West 152 175 2,800 1,200 Climbing Philadelphia TRACON
09:37PM 39.9167 -75.3500 270° West 158 182 4,100 1,380 Climbing Philadelphia TRACON
09:38PM 40.0608 -75.2985 339° North  Level Estimated
09:38PM 39.9333 -75.4000 294° West 157 181 5,600  Level Philadelphia TRACON
09:39PM 40.1236 -75.3178 323° Northwest  Level Estimated
09:39PM 39.9628 -75.4372 316° Northwest 172 198 6,700  Level New York Center
09:40PM 40.1865 -75.3372 311° West  Level Estimated
09:40PM 39.9972 -75.4642 329° Northwest 181 208 8,100  Level New York Center
09:41PM 40.0486 -75.4839 344° North 170 196 9,000 660 Climbing New York Center
09:42PM 40.0972 -75.5142 335° Northwest 200 230 9,500 1,200 Climbing New York Center
09:43PM 40.1508 -75.5342 344° North 193 222 11,500 1,200 Climbing New York Center
09:44PM 40.2044 -75.5461 350° North 188 216 12,000 240 Climbing New York Center
09:45PM 40.2528 -75.5900 325° Northwest 203 234 12,000 660 Level New York Center
09:46PM 40.2836 -75.6467 306° West 203 234 13,400 960 Climbing New York Center
09:47PM 40.3242 -75.6767 331° Northwest 184 212 14,000 300 Climbing New York Center
09:48PM 40.3750 -75.7075 335° Northwest 189 217 14,000  Level New York Center
09:49PM 40.4383 -75.7367 341° North 213 245 14,000  Level New York Center
09:50PM 40.4953 -75.7681 337° Northwest 226 260 14,000  Level New York Center
09:51PM 40.5500 -75.8075 331° Northwest 226 260 14,000  Level New York Center
09:52PM 40.6050 -75.8361 338° Northwest 226 260 14,000  Level New York Center
09:53PM 40.6622 -75.8650 339° North 231 266 14,000  Level New York Center
09:54PM 40.7322 -75.8811 350° North 226 260 14,000  Level New York Center
09:55PM 40.7961 -75.8969 349° North 226 260 14,000 -300 Level New York Center
09:56PM 40.8628 -75.9019 357° North 231 266 13,500 -540 Descending New York Center
09:57PM 40.9225 -75.9175 349° North 236 272 13,000 -600 Descending New York Center
09:58PM 40.9925 -75.9339 350° North 241 277 12,400 -660 Descending New York Center
09:59PM 41.0694 -75.9397 357° North 241 277 11,700 -660 Descending New York Center
10:00PM 41.1419 -75.9481 355° North 247 284 11,100 -600 Descending New York Center
10:01PM 41.2100 -75.9614 352° North 252 290 10,600 -600 Descending New York Center
10:02PM 41.2700 -75.9742 351° North 252 290 10,000 -300 Descending New York Center
10:03PM 41.3383 -75.9850 353° North 252 290 10,000  Level New York Center
10:04PM 41.4083 -75.9989 352° North 233 268 10,000 -300 Level New York Center
10:05PM 41.4747 -76.0094 353° North 233 268 9,500 -660 Descending New York Center
10:06PM 41.5425 -76.0286 348° North 238 274 8,700 -720 Descending New York Center
10:07PM 41.6042 -76.0447 349° North 243 280 8,100 -300 Descending New York Center
10:08PM 41.6722 -76.0583 352° North 236 272 8,100 -120 Level New York Center
10:09PM 41.7386 -76.0664 355° North 236 272 7,900 -660 Descending New York Center
10:10PM 41.8072 -76.0719 357° North 236 272 6,800 -1,200 Descending New York Center
10:11PM 41.8733 -76.0828 353° North 236 272 5,600 -1,200 Descending New York Center
10:12PM 41.9303 -76.0650 13° North 230 265 4,500 -840 Descending New York Center
10:13PM 41.9947 -76.0197 28° Northeast 230 265 4,000 -300 Descending New York Center
10:14PM 42.0400 -75.9872 28° Northeast 219 252 4,000  Level New York Center
10:15PM 42.0919 -75.9408 34° Northeast 207 238 4,000 -540 Level New York Center
10:16PM 42.1325 -75.9189 22° Northeast 183 211 3,000 -720 Descending New York Center
10:17PM 42.1564 -75.9403 326° Northwest 122 140 2,600 -540 Descending New York Center
10:18PM 42.1847 -75.9622 330° Northwest 107 123 2,000 -300 Descending New York Center
10:19PM 42.2097 -75.9614 North 107 123 2,000  Level New York Center